Aviation Digital Data Service (ADDS)

Output produced by METARs form (0015 UTC 23 March 2019)
found at http://www.aviationweather.gov/metar/data/
 
METAR text: VOHY 221600Z 13005KT 6000 SCT020 30/20 Q1016 NOSIG
Conditions at: VOHY (HYDERABAD (CIV/M, IN) observed 1600 UTC 22 March 2019
Temperature: 30.0°C (86°F)
Dewpoint: 20.0°C (68°F) [RH = 55%]
Pressure (altimeter): 30.00 inches Hg (1016.0 mb)
Winds: from the SE (130 degrees) at 6 MPH (5 knots; 2.6 m/s)
Visibility: 4 miles ( 6 km)
Ceiling: at least 12,000 feet AGL
Clouds: scattered clouds at 2000 feet AGL
Weather: no significant weather observed at this time

METAR text: VOHY 221530Z 14006KT 6000 SCT020 30/20 Q1015 NOSIG
Conditions at: VOHY (HYDERABAD (CIV/M, IN) observed 1530 UTC 22 March 2019
Temperature: 30.0°C (86°F)
Dewpoint: 20.0°C (68°F) [RH = 55%]
Pressure (altimeter): 29.97 inches Hg (1015.0 mb)
Winds: from the SE (140 degrees) at 7 MPH (6 knots; 3.1 m/s)
Visibility: 4 miles ( 6 km)
Ceiling: at least 12,000 feet AGL
Clouds: scattered clouds at 2000 feet AGL
Weather: no significant weather observed at this time

METAR text: VOHY 221500Z 10005KT 6000 SCT020 31/21 Q1015 NOSIG
Conditions at: VOHY (HYDERABAD (CIV/M, IN) observed 1500 UTC 22 March 2019
Temperature: 31.0°C (88°F)
Dewpoint: 21.0°C (70°F) [RH = 55%]
Pressure (altimeter): 29.97 inches Hg (1015.0 mb)
Winds: from the E (100 degrees) at 6 MPH (5 knots; 2.6 m/s)
Visibility: 4 miles ( 6 km)
Ceiling: at least 12,000 feet AGL
Clouds: scattered clouds at 2000 feet AGL
Weather: no significant weather observed at this time

METAR text: VOHY 221430Z 11006KT 6000 SCT020 31/21 Q1014 NOSIG
Conditions at: VOHY (HYDERABAD (CIV/M, IN) observed 1430 UTC 22 March 2019
Temperature: 31.0°C (88°F)
Dewpoint: 21.0°C (70°F) [RH = 55%]
Pressure (altimeter): 29.94 inches Hg (1014.0 mb)
Winds: from the ESE (110 degrees) at 7 MPH (6 knots; 3.1 m/s)
Visibility: 4 miles ( 6 km)
Ceiling: at least 12,000 feet AGL
Clouds: scattered clouds at 2000 feet AGL
Weather: no significant weather observed at this time

METAR text: VOHY 221400Z 12005KT 6000 SCT020 31/21 Q1014 NOSIG
Conditions at: VOHY (HYDERABAD (CIV/M, IN) observed 1400 UTC 22 March 2019
Temperature: 31.0°C (88°F)
Dewpoint: 21.0°C (70°F) [RH = 55%]
Pressure (altimeter): 29.94 inches Hg (1014.0 mb)
Winds: from the ESE (120 degrees) at 6 MPH (5 knots; 2.6 m/s)
Visibility: 4 miles ( 6 km)
Ceiling: at least 12,000 feet AGL
Clouds: scattered clouds at 2000 feet AGL
Weather: no significant weather observed at this time

METAR text: VOHY 221330Z 10007KT 6000 SCT020 32/21 Q1014 NOSIG
Conditions at: VOHY (HYDERABAD (CIV/M, IN) observed 1330 UTC 22 March 2019
Temperature: 32.0°C (90°F)
Dewpoint: 21.0°C (70°F) [RH = 52%]
Pressure (altimeter): 29.94 inches Hg (1014.0 mb)
Winds: from the E (100 degrees) at 8 MPH (7 knots; 3.6 m/s)
Visibility: 4 miles ( 6 km)
Ceiling: at least 12,000 feet AGL
Clouds: scattered clouds at 2000 feet AGL
Weather: no significant weather observed at this time

METAR text: VOHY 221300Z 12006KT 6000 SCT020 32/21 Q1013 NOSIG
Conditions at: VOHY (HYDERABAD (CIV/M, IN) observed 1300 UTC 22 March 2019
Temperature: 32.0°C (90°F)
Dewpoint: 21.0°C (70°F) [RH = 52%]
Pressure (altimeter): 29.91 inches Hg (1013.0 mb)
Winds: from the ESE (120 degrees) at 7 MPH (6 knots; 3.1 m/s)
Visibility: 4 miles ( 6 km)
Ceiling: at least 12,000 feet AGL
Clouds: scattered clouds at 2000 feet AGL
Weather: no significant weather observed at this time

METAR text: VOHY 221230Z 11008KT 6000 SCT020 SCT025 33/22 Q1013 NOSIG
Conditions at: VOHY (HYDERABAD (CIV/M, IN) observed 1230 UTC 22 March 2019
Temperature: 33.0°C (91°F)
Dewpoint: 22.0°C (72°F) [RH = 53%]
Pressure (altimeter): 29.91 inches Hg (1013.0 mb)
Winds: from the ESE (110 degrees) at 9 MPH (8 knots; 4.1 m/s)
Visibility: 4 miles ( 6 km)
Ceiling: at least 12,000 feet AGL
Clouds: scattered clouds at 2000 feet AGL
scattered clouds at 2500 feet AGL
Weather: no significant weather observed at this time

METAR text: VOHY 221200Z 12005KT 6000 SCT020 SCT025 34/21 Q1012 NOSIG
Conditions at: VOHY (HYDERABAD (CIV/M, IN) observed 1200 UTC 22 March 2019
Temperature: 34.0°C (93°F)
Dewpoint: 21.0°C (70°F) [RH = 47%]
Pressure (altimeter): 29.88 inches Hg (1012.0 mb)
Winds: from the ESE (120 degrees) at 6 MPH (5 knots; 2.6 m/s)
Visibility: 4 miles ( 6 km)
Ceiling: at least 12,000 feet AGL
Clouds: scattered clouds at 2000 feet AGL
scattered clouds at 2500 feet AGL
Weather: no significant weather observed at this time

METAR text: VOHY 221130Z 20005KT 6000 SCT020 SCT025 38/17 Q1012 NOSIG
Conditions at: VOHY (HYDERABAD (CIV/M, IN) observed 1130 UTC 22 March 2019
Temperature: 38.0°C (100°F)
Dewpoint: 17.0°C (63°F) [RH = 29%]
Pressure (altimeter): 29.88 inches Hg (1012.0 mb)
Winds: from the SSW (200 degrees) at 6 MPH (5 knots; 2.6 m/s)
Visibility: 4 miles ( 6 km)
Ceiling: at least 12,000 feet AGL
Clouds: scattered clouds at 2000 feet AGL
scattered clouds at 2500 feet AGL
Weather: no significant weather observed at this time

METAR text: VOHY 221100Z 26005KT 6000 SCT020 SCT025 38/17 Q1012 NOSIG
Conditions at: VOHY (HYDERABAD (CIV/M, IN) observed 1100 UTC 22 March 2019
Temperature: 38.0°C (100°F)
Dewpoint: 17.0°C (63°F) [RH = 29%]
Pressure (altimeter): 29.88 inches Hg (1012.0 mb)
Winds: from the W (260 degrees) at 6 MPH (5 knots; 2.6 m/s)
Visibility: 4 miles ( 6 km)
Ceiling: at least 12,000 feet AGL
Clouds: scattered clouds at 2000 feet AGL
scattered clouds at 2500 feet AGL
Weather: no significant weather observed at this time

METAR text: VOHY 221030Z VRB02KT 6000 SCT020 SCT025 38/18 Q1012 NOSIG
Conditions at: VOHY (HYDERABAD (CIV/M, IN) observed 1030 UTC 22 March 2019
Temperature: 38.0°C (100°F)
Dewpoint: 18.0°C (64°F) [RH = 31%]
Pressure (altimeter): 29.88 inches Hg (1012.0 mb)
Winds: variable direction winds at 2 MPH (2 knots; 1.0 m/s)
Visibility: 4 miles ( 6 km)
Ceiling: at least 12,000 feet AGL
Clouds: scattered clouds at 2000 feet AGL
scattered clouds at 2500 feet AGL
Weather: no significant weather observed at this time

METAR text: VOHY 221000Z 11003KT 6000 SCT020 SCT025 37/18 Q1012 NOSIG
Conditions at: VOHY (HYDERABAD (CIV/M, IN) observed 1000 UTC 22 March 2019
Temperature: 37.0°C (99°F)
Dewpoint: 18.0°C (64°F) [RH = 33%]
Pressure (altimeter): 29.88 inches Hg (1012.0 mb)
Winds: from the ESE (110 degrees) at 3 MPH (3 knots; 1.5 m/s)
Visibility: 4 miles ( 6 km)
Ceiling: at least 12,000 feet AGL
Clouds: scattered clouds at 2000 feet AGL
scattered clouds at 2500 feet AGL
Weather: no significant weather observed at this time

METAR text: VOHY 220930Z 06005KT 6000 SCT020 SCT025 37/18 Q1013 NOSIG
Conditions at: VOHY (HYDERABAD (CIV/M, IN) observed 0930 UTC 22 March 2019
Temperature: 37.0°C (99°F)
Dewpoint: 18.0°C (64°F) [RH = 33%]
Pressure (altimeter): 29.91 inches Hg (1013.0 mb)
Winds: from the ENE (60 degrees) at 6 MPH (5 knots; 2.6 m/s)
Visibility: 4 miles ( 6 km)
Ceiling: at least 12,000 feet AGL
Clouds: scattered clouds at 2000 feet AGL
scattered clouds at 2500 feet AGL
Weather: no significant weather observed at this time

METAR text: VOHY 220900Z 09003KT 6000 SCT020 SCT025 38/19 Q1013 NOSIG
Conditions at: VOHY (HYDERABAD (CIV/M, IN) observed 0900 UTC 22 March 2019
Temperature: 38.0°C (100°F)
Dewpoint: 19.0°C (66°F) [RH = 33%]
Pressure (altimeter): 29.91 inches Hg (1013.0 mb)
Winds: from the E (90 degrees) at 3 MPH (3 knots; 1.5 m/s)
Visibility: 4 miles ( 6 km)
Ceiling: at least 12,000 feet AGL
Clouds: scattered clouds at 2000 feet AGL
scattered clouds at 2500 feet AGL
Weather: no significant weather observed at this time

METAR text: VOHY 220830Z 11003KT 6000 FEW020 37/19 Q1014 NOSIG
Conditions at: VOHY (HYDERABAD (CIV/M, IN) observed 0830 UTC 22 March 2019
Temperature: 37.0°C (99°F)
Dewpoint: 19.0°C (66°F) [RH = 35%]
Pressure (altimeter): 29.94 inches Hg (1014.0 mb)
Winds: from the ESE (110 degrees) at 3 MPH (3 knots; 1.5 m/s)
Visibility: 4 miles ( 6 km)
Ceiling: at least 12,000 feet AGL
Clouds: few clouds at 2000 feet AGL
Weather: no significant weather observed at this time

METAR text: VOHY 220800Z 14003KT 6000 FEW020 36/20 Q1015 NOSIG
Conditions at: VOHY (HYDERABAD (CIV/M, IN) observed 0800 UTC 22 March 2019
Temperature: 36.0°C (97°F)
Dewpoint: 20.0°C (68°F) [RH = 39%]
Pressure (altimeter): 29.97 inches Hg (1015.0 mb)
Winds: from the SE (140 degrees) at 3 MPH (3 knots; 1.5 m/s)
Visibility: 4 miles ( 6 km)
Ceiling: at least 12,000 feet AGL
Clouds: few clouds at 2000 feet AGL
Weather: no significant weather observed at this time

METAR text: VOHY 220730Z 16004KT 6000 NSC 36/20 Q1016 NOSIG
Conditions at: VOHY (HYDERABAD (CIV/M, IN) observed 0730 UTC 22 March 2019
Temperature: 36.0°C (97°F)
Dewpoint: 20.0°C (68°F) [RH = 39%]
Pressure (altimeter): 30.00 inches Hg (1016.0 mb)
Winds: from the SSE (160 degrees) at 5 MPH (4 knots; 2.1 m/s)
Visibility: 4 miles ( 6 km)
Ceiling: at least 12,000 feet AGL
Clouds: sky clear below 12,000 feet AGL
Weather: no significant weather observed at this time

METAR text: VOHY 220700Z 16004KT 6000 NSC 36/20 Q1016 NOSIG
Conditions at: VOHY (HYDERABAD (CIV/M, IN) observed 0700 UTC 22 March 2019
Temperature: 36.0°C (97°F)
Dewpoint: 20.0°C (68°F) [RH = 39%]
Pressure (altimeter): 30.00 inches Hg (1016.0 mb)
Winds: from the SSE (160 degrees) at 5 MPH (4 knots; 2.1 m/s)
Visibility: 4 miles ( 6 km)
Ceiling: at least 12,000 feet AGL
Clouds: sky clear below 12,000 feet AGL
Weather: no significant weather observed at this time

METAR text: VOHY 220630Z 17004KT 6000 NSC 35/20 Q1017 NOSIG
Conditions at: VOHY (HYDERABAD (CIV/M, IN) observed 0630 UTC 22 March 2019
Temperature: 35.0°C (95°F)
Dewpoint: 20.0°C (68°F) [RH = 42%]
Pressure (altimeter): 30.03 inches Hg (1017.0 mb)
Winds: from the S (170 degrees) at 5 MPH (4 knots; 2.1 m/s)
Visibility: 4 miles ( 6 km)
Ceiling: at least 12,000 feet AGL
Clouds: sky clear below 12,000 feet AGL
Weather: no significant weather observed at this time

METAR text: VOHY 220600Z 25004KT 6000 NSC 33/20 Q1017 NOSIG
Conditions at: VOHY (HYDERABAD (CIV/M, IN) observed 0600 UTC 22 March 2019
Temperature: 33.0°C (91°F)
Dewpoint: 20.0°C (68°F) [RH = 46%]
Pressure (altimeter): 30.03 inches Hg (1017.0 mb)
Winds: from the WSW (250 degrees) at 5 MPH (4 knots; 2.1 m/s)
Visibility: 4 miles ( 6 km)
Ceiling: at least 12,000 feet AGL
Clouds: sky clear below 12,000 feet AGL
Weather: no significant weather observed at this time

METAR text: VOHY 220530Z 21002KT 6000 NSC 33/20 Q1018 NOSIG
Conditions at: VOHY (HYDERABAD (CIV/M, IN) observed 0530 UTC 22 March 2019
Temperature: 33.0°C (91°F)
Dewpoint: 20.0°C (68°F) [RH = 46%]
Pressure (altimeter): 30.06 inches Hg (1018.0 mb)
Winds: from the SSW (210 degrees) at 2 MPH (2 knots; 1.0 m/s)
Visibility: 4 miles ( 6 km)
Ceiling: at least 12,000 feet AGL
Clouds: sky clear below 12,000 feet AGL
Weather: no significant weather observed at this time

METAR text: VOHY 220500Z 21005KT 6000 NSC 33/21 Q1018 NOSIG
Conditions at: VOHY (HYDERABAD (CIV/M, IN) observed 0500 UTC 22 March 2019
Temperature: 33.0°C (91°F)
Dewpoint: 21.0°C (70°F) [RH = 49%]
Pressure (altimeter): 30.06 inches Hg (1018.0 mb)
Winds: from the SSW (210 degrees) at 6 MPH (5 knots; 2.6 m/s)
Visibility: 4 miles ( 6 km)
Ceiling: at least 12,000 feet AGL
Clouds: sky clear below 12,000 feet AGL
Weather: no significant weather observed at this time

METAR text: VOHY 220430Z 19004KT 6000 NSC 32/22 Q1018 NOSIG
Conditions at: VOHY (HYDERABAD (CIV/M, IN) observed 0430 UTC 22 March 2019
Temperature: 32.0°C (90°F)
Dewpoint: 22.0°C (72°F) [RH = 56%]
Pressure (altimeter): 30.06 inches Hg (1018.0 mb)
Winds: from the S (190 degrees) at 5 MPH (4 knots; 2.1 m/s)
Visibility: 4 miles ( 6 km)
Ceiling: at least 12,000 feet AGL
Clouds: sky clear below 12,000 feet AGL
Weather: no significant weather observed at this time

METAR text: VOHY 220400Z 18004KT 5000 HZ NSC 31/22 Q1018 BECMG 6000
Conditions at: VOHY (HYDERABAD (CIV/M, IN) observed 0400 UTC 22 March 2019
Temperature: 31.0°C (88°F)
Dewpoint: 22.0°C (72°F) [RH = 59%]
Pressure (altimeter): 30.06 inches Hg (1018.0 mb)
Winds: from the S (180 degrees) at 5 MPH (4 knots; 2.1 m/s)
Visibility: 3 miles ( 5 km)
Ceiling: at least 12,000 feet AGL
Clouds: sky clear below 12,000 feet AGL
Weather: HZ  (haze)

METAR text: VOHY 220330Z 15003KT 5000 HZ NSC 29/23 Q1018 NOSIG
Conditions at: VOHY (HYDERABAD (CIV/M, IN) observed 0330 UTC 22 March 2019
Temperature: 29.0°C (84°F)
Dewpoint: 23.0°C (73°F) [RH = 70%]
Pressure (altimeter): 30.06 inches Hg (1018.0 mb)
Winds: from the SSE (150 degrees) at 3 MPH (3 knots; 1.5 m/s)
Visibility: 3 miles ( 5 km)
Ceiling: at least 12,000 feet AGL
Clouds: sky clear below 12,000 feet AGL
Weather: HZ  (haze)

METAR text: VOHY 220300Z 19002KT 5000 HZ FEW020 27/22 Q1018 NOSIG
Conditions at: VOHY (HYDERABAD (CIV/M, IN) observed 0300 UTC 22 March 2019
Temperature: 27.0°C (81°F)
Dewpoint: 22.0°C (72°F) [RH = 74%]
Pressure (altimeter): 30.06 inches Hg (1018.0 mb)
Winds: from the S (190 degrees) at 2 MPH (2 knots; 1.0 m/s)
Visibility: 3 miles ( 5 km)
Ceiling: at least 12,000 feet AGL
Clouds: few clouds at 2000 feet AGL
Weather: HZ  (haze)

METAR text: VOHY 220230Z 13002KT 5000 BR FEW020 26/23 Q1017 NOSIG
Conditions at: VOHY (HYDERABAD (CIV/M, IN) observed 0230 UTC 22 March 2019
Temperature: 26.0°C (79°F)
Dewpoint: 23.0°C (73°F) [RH = 84%]
Pressure (altimeter): 30.03 inches Hg (1017.0 mb)
Winds: from the SE (130 degrees) at 2 MPH (2 knots; 1.0 m/s)
Visibility: 3 miles ( 5 km)
Ceiling: at least 12,000 feet AGL
Clouds: few clouds at 2000 feet AGL
Weather: BR  (mist)

METAR text: VOHY 220200Z 13002KT 5000 BR FEW020 SCT100 25/22 Q1017 NOSIG
Conditions at: VOHY (HYDERABAD (CIV/M, IN) observed 0200 UTC 22 March 2019
Temperature: 25.0°C (77°F)
Dewpoint: 22.0°C (72°F) [RH = 83%]
Pressure (altimeter): 30.03 inches Hg (1017.0 mb)
Winds: from the SE (130 degrees) at 2 MPH (2 knots; 1.0 m/s)
Visibility: 3 miles ( 5 km)
Ceiling: at least 12,000 feet AGL
Clouds: few clouds at 2000 feet AGL
scattered clouds at 10000 feet AGL
Weather: BR  (mist)

METAR text: VOHY 220130Z 14003KT 5000 BR FEW020 SCT100 24/22 Q1016 NOSIG
Conditions at: VOHY (HYDERABAD (CIV/M, IN) observed 0130 UTC 22 March 2019
Temperature: 24.0°C (75°F)
Dewpoint: 22.0°C (72°F) [RH = 89%]
Pressure (altimeter): 30.00 inches Hg (1016.0 mb)
Winds: from the SE (140 degrees) at 3 MPH (3 knots; 1.5 m/s)
Visibility: 3 miles ( 5 km)
Ceiling: at least 12,000 feet AGL
Clouds: few clouds at 2000 feet AGL
scattered clouds at 10000 feet AGL
Weather: BR  (mist)

METAR text: VOHY 211830Z 12004KT 6000 NSC FEW020 26/20 Q1016 NOSIG
Conditions at: VOHY (HYDERABAD (CIV/M, IN) observed 1830 UTC 21 March 2019
Temperature: 26.0°C (79°F)
Dewpoint: 20.0°C (68°F) [RH = 70%]
Pressure (altimeter): 30.00 inches Hg (1016.0 mb)
Winds: from the ESE (120 degrees) at 5 MPH (4 knots; 2.1 m/s)
Visibility: 4 miles ( 6 km)
Ceiling: at least 12,000 feet AGL
Clouds: few clouds at 2000 feet AGL
Weather: no significant weather observed at this time

METAR text: VOHY 211800Z 10006KT 6000 FEW020 SCT100 27/20 Q1016 NOSIG
Conditions at: VOHY (HYDERABAD (CIV/M, IN) observed 1800 UTC 21 March 2019
Temperature: 27.0°C (81°F)
Dewpoint: 20.0°C (68°F) [RH = 66%]
Pressure (altimeter): 30.00 inches Hg (1016.0 mb)
Winds: from the E (100 degrees) at 7 MPH (6 knots; 3.1 m/s)
Visibility: 4 miles ( 6 km)
Ceiling: at least 12,000 feet AGL
Clouds: few clouds at 2000 feet AGL
scattered clouds at 10000 feet AGL
Weather: no significant weather observed at this time

METAR text: VOHY 211730Z 10005KT 6000 FEW020 SCT100 27/20 Q1016 NOSIG
Conditions at: VOHY (HYDERABAD (CIV/M, IN) observed 1730 UTC 21 March 2019
Temperature: 27.0°C (81°F)
Dewpoint: 20.0°C (68°F) [RH = 66%]
Pressure (altimeter): 30.00 inches Hg (1016.0 mb)
Winds: from the E (100 degrees) at 6 MPH (5 knots; 2.6 m/s)
Visibility: 4 miles ( 6 km)
Ceiling: at least 12,000 feet AGL
Clouds: few clouds at 2000 feet AGL
scattered clouds at 10000 feet AGL
Weather: no significant weather observed at this time

METAR text: VOHY 211700Z 11106KT 6000 NSC 28/20 Q1016 NOSIG
Conditions at: VOHY (HYDERABAD (CIV/M, IN) observed 1700 UTC 21 March 2019
Temperature: 28.0°C (82°F)
Dewpoint: 20.0°C (68°F) [RH = 62%]
Pressure (altimeter): 30.00 inches Hg (1016.0 mb)
Winds: from the ESE (111 degrees) at 7 MPH (6 knots; 3.1 m/s)
Visibility: 4 miles ( 6 km)
Ceiling: at least 12,000 feet AGL
Clouds: sky clear below 12,000 feet AGL
Weather: no significant weather observed at this time

METAR text: VOHY 211600Z 12004KT 6000 FEW023 29/20 Q1015 NOSIG
Conditions at: VOHY (HYDERABAD (CIV/M, IN) observed 1600 UTC 21 March 2019
Temperature: 29.0°C (84°F)
Dewpoint: 20.0°C (68°F) [RH = 58%]
Pressure (altimeter): 29.97 inches Hg (1015.0 mb)
Winds: from the ESE (120 degrees) at 5 MPH (4 knots; 2.1 m/s)
Visibility: 4 miles ( 6 km)
Ceiling: at least 12,000 feet AGL
Clouds: few clouds at 2300 feet AGL
Weather: no significant weather observed at this time

METAR text: VOHY 211530Z 12005KT 6000 FEW023 30/20 Q1015 NOSIG
Conditions at: VOHY (HYDERABAD (CIV/M, IN) observed 1530 UTC 21 March 2019
Temperature: 30.0°C (86°F)
Dewpoint: 20.0°C (68°F) [RH = 55%]
Pressure (altimeter): 29.97 inches Hg (1015.0 mb)
Winds: from the ESE (120 degrees) at 6 MPH (5 knots; 2.6 m/s)
Visibility: 4 miles ( 6 km)
Ceiling: at least 12,000 feet AGL
Clouds: few clouds at 2300 feet AGL
Weather: no significant weather observed at this time

METAR text: VOHY 211430Z 13007KT 6000 FEW023 31/18 Q1014 NOSIG
Conditions at: VOHY (HYDERABAD (CIV/M, IN) observed 1430 UTC 21 March 2019
Temperature: 31.0°C (88°F)
Dewpoint: 18.0°C (64°F) [RH = 46%]
Pressure (altimeter): 29.94 inches Hg (1014.0 mb)
Winds: from the SE (130 degrees) at 8 MPH (7 knots; 3.6 m/s)
Visibility: 4 miles ( 6 km)
Ceiling: at least 12,000 feet AGL
Clouds: few clouds at 2300 feet AGL
Weather: no significant weather observed at this time

METAR text: VOHY 211400Z 11007KT 6000 SCT020 SCT100 31/18 Q1014 NOSIG
Conditions at: VOHY (HYDERABAD (CIV/M, IN) observed 1400 UTC 21 March 2019
Temperature: 31.0°C (88°F)
Dewpoint: 18.0°C (64°F) [RH = 46%]
Pressure (altimeter): 29.94 inches Hg (1014.0 mb)
Winds: from the ESE (110 degrees) at 8 MPH (7 knots; 3.6 m/s)
Visibility: 4 miles ( 6 km)
Ceiling: at least 12,000 feet AGL
Clouds: scattered clouds at 2000 feet AGL
scattered clouds at 10000 feet AGL
Weather: no significant weather observed at this time

METAR text: VOHY 211330Z 14008KT 6000 SCT023 SCT025 32/18 Q1013 NOSIG
Conditions at: VOHY (HYDERABAD (CIV/M, IN) observed 1330 UTC 21 March 2019
Temperature: 32.0°C (90°F)
Dewpoint: 18.0°C (64°F) [RH = 43%]
Pressure (altimeter): 29.91 inches Hg (1013.0 mb)
Winds: from the SE (140 degrees) at 9 MPH (8 knots; 4.1 m/s)
Visibility: 4 miles ( 6 km)
Ceiling: at least 12,000 feet AGL
Clouds: scattered clouds at 2300 feet AGL
scattered clouds at 2500 feet AGL
Weather: no significant weather observed at this time

METAR text: VOHY 211300Z 11007KT 6000 SCT023 SCT025 33/19 Q1013 NOSIG
Conditions at: VOHY (HYDERABAD (CIV/M, IN) observed 1300 UTC 21 March 2019
Temperature: 33.0°C (91°F)
Dewpoint: 19.0°C (66°F) [RH = 44%]
Pressure (altimeter): 29.91 inches Hg (1013.0 mb)
Winds: from the ESE (110 degrees) at 8 MPH (7 knots; 3.6 m/s)
Visibility: 4 miles ( 6 km)
Ceiling: at least 12,000 feet AGL
Clouds: scattered clouds at 2300 feet AGL
scattered clouds at 2500 feet AGL
Weather: no significant weather observed at this time

METAR text: VOHY 211230Z 11006KT 6000 SCT023 SCT025 33/19 Q1013 NOSIG
Conditions at: VOHY (HYDERABAD (CIV/M, IN) observed 1230 UTC 21 March 2019
Temperature: 33.0°C (91°F)
Dewpoint: 19.0°C (66°F) [RH = 44%]
Pressure (altimeter): 29.91 inches Hg (1013.0 mb)
Winds: from the ESE (110 degrees) at 7 MPH (6 knots; 3.1 m/s)
Visibility: 4 miles ( 6 km)
Ceiling: at least 12,000 feet AGL
Clouds: scattered clouds at 2300 feet AGL
scattered clouds at 2500 feet AGL
Weather: no significant weather observed at this time

Forecast for: VOHY (HYDERABAD (CIV/M, IN)
Text: TAF VOHY 222300Z 2300/2309 17006KT 5000 HZ FEW015 SCT100
Forecast period: 0000 to 0300 UTC 23 March 2019
Forecast type: FROM: standard forecast or significant change
Winds: from the S (170 degrees) at 7 MPH (6 knots; 3.1 m/s)
Visibility: 3 miles (5 km)
Ceiling: at least 12,000 feet AGL
Clouds: few clouds at 1500 feet AGL
scattered clouds at 10000 feet AGL
Weather: HZ  (haze)
Text: TEMPO 2300/2303 3000 BR SCT010
Forecast period: 0000 to 0300 UTC 23 March 2019
Forecast type: TEMPORARY: The following changes expected for less than half the time period
Visibility: 1.86 miles (2.99 km)
Ceiling: at least 12,000 feet AGL
Clouds: scattered clouds at 1000 feet AGL
Weather: BR  (mist)
Text: BECMG 2303/2305 16010KT 6000 SCT015 SCT025
Forecast period: 0300 to 0900 UTC 23 March 2019
Forecast type: BECOMING: Conditions expected to become as follows by 0500 UTC 23 March 2019
Winds: from the SSE (160 degrees) at 12 MPH (10 knots; 5.1 m/s)
Visibility: 4 miles (6 km)
Ceiling: at least 12,000 feet AGL
Clouds: scattered clouds at 1500 feet AGL
scattered clouds at 2500 feet AGL
Weather: HZ  (haze)